createdAt,value
2023-04-07T00:04:56.907Z,6.4
2023-04-07T00:14:58.587Z,6.4
2023-04-07T00:25:00.728Z,6.4
2023-04-07T00:35:03.316Z,6.4
2023-04-07T00:45:05.530Z,6.4
2023-04-07T01:05:10.276Z,6.5
2023-04-07T01:15:12.378Z,6.5
2023-04-07T01:25:14.484Z,6.5
2023-04-07T01:35:16.692Z,6.5
2023-04-07T01:45:19.037Z,6.5
2023-04-07T01:55:21.313Z,6.5
2023-04-07T02:15:24.883Z,6.6
2023-04-07T02:25:26.997Z,6.6
2023-04-07T02:35:28.849Z,6.6
2023-04-07T02:45:30.975Z,6.6
2023-04-07T02:55:33.125Z,6.7
2023-04-07T03:05:35.349Z,6.7
2023-04-07T03:15:37.667Z,6.7
2023-04-07T03:25:40.112Z,6.8
2023-04-07T03:35:41.817Z,6.8
2023-04-07T03:55:45.614Z,6.8
2023-04-07T04:05:47.705Z,6.8
2023-04-07T04:15:50.274Z,6.8
2023-04-07T04:25:52.356Z,6.9
2023-04-07T04:35:54.336Z,6.8
2023-04-07T04:45:56.076Z,6.8
2023-04-07T04:55:58.383Z,6.7
2023-04-07T05:06:00.754Z,6.7
2023-04-07T05:16:02.913Z,6.7
2023-04-07T05:26:05.377Z,6.7
2023-04-07T05:36:07.733Z,6.6
2023-04-07T05:46:09.829Z,6.6
2023-04-07T05:56:12.296Z,6.6
2023-04-07T06:06:14.243Z,6.6
2023-04-07T06:16:17.432Z,6.6
2023-04-07T06:26:18.246Z,6.6
2023-04-07T06:46:22.945Z,6.6
2023-04-07T06:56:25.339Z,6.7
2023-04-07T07:06:27.296Z,6.9
2023-04-07T07:16:29.093Z,6.9
2023-04-07T07:26:31.666Z,7.1
2023-04-07T07:36:34.185Z,7.1
2023-04-07T07:46:36.815Z,7.2
2023-04-07T07:56:38.672Z,7.3
2023-04-07T08:06:41.076Z,7.3
2023-04-07T08:16:43.197Z,7.5
2023-04-07T08:26:45.526Z,7.4
2023-04-07T08:36:47.728Z,7.4
2023-04-07T08:46:49.776Z,7.5
2023-04-07T08:56:51.974Z,7.7
2023-04-07T09:06:54.326Z,7.7
2023-04-07T09:16:56.805Z,7.9
2023-04-07T09:26:58.803Z,7.8
2023-04-07T09:37:00.588Z,7.8
2023-04-07T09:47:03.150Z,7.8
2023-04-07T09:57:04.998Z,8.1
2023-04-07T10:07:06.896Z,7.8
2023-04-07T10:17:09.345Z,7.7
2023-04-07T10:27:11.434Z,7.9
2023-04-07T10:37:13.686Z,7.8
2023-04-07T10:47:16.248Z,7.9
2023-04-07T10:57:18.156Z,7.8
2023-04-07T11:07:20.463Z,7.7
2023-04-07T11:17:22.770Z,7.9
2023-04-07T11:27:25.305Z,7.8
2023-04-07T11:37:27.236Z,7.8
2023-04-07T11:47:29.699Z,8
2023-04-07T11:57:31.789Z,8
2023-04-07T12:07:33.606Z,8.2
2023-04-07T12:27:43.141Z,8.1
2023-04-07T12:37:40.068Z,8
2023-04-07T12:47:42.751Z,8
2023-04-07T12:57:44.393Z,8
2023-04-07T13:07:47.365Z,8
2023-04-07T13:17:48.354Z,8
2023-04-07T13:27:50.788Z,8
2023-04-07T13:37:53.415Z,7.9
2023-04-07T13:47:56.915Z,8
2023-04-07T13:57:58.544Z,8.2
2023-04-07T14:08:00.440Z,8.1
2023-04-07T14:18:03.075Z,8.2
2023-04-07T14:28:05.017Z,8.2
2023-04-07T14:38:07.549Z,8
2023-04-07T14:48:09.538Z,8.4
2023-04-07T14:58:12.067Z,8.2
2023-04-07T15:18:16.798Z,8.3
2023-04-07T15:28:19.218Z,8.3
2023-04-07T15:38:21.774Z,8.5
2023-04-07T15:48:24.125Z,8.5
2023-04-07T15:58:26.479Z,8.6
2023-04-07T16:18:30.263Z,8.4
2023-04-07T16:28:32.821Z,8.5
2023-04-07T16:38:34.900Z,8.5
2023-04-07T16:48:36.866Z,8.4
2023-04-07T16:58:38.724Z,8.4
2023-04-07T17:08:40.600Z,8.4
2023-04-07T17:18:43.060Z,8.4
2023-04-07T17:28:45.488Z,8.4
2023-04-07T17:38:47.326Z,8.2
2023-04-07T17:48:49.827Z,8.2
2023-04-07T18:08:53.933Z,8.1
2023-04-07T18:18:56.094Z,8.1
2023-04-07T18:28:57.942Z,8
2023-04-07T18:39:00.432Z,7.9
2023-04-07T18:49:02.776Z,7.8
2023-04-07T18:59:04.622Z,7.8
2023-04-07T18:59:26.423Z,7.8
2023-04-07T19:09:13.445Z,7.7
2023-04-07T19:19:15.587Z,7.7
2023-04-07T19:29:18.078Z,7.6
2023-04-07T19:49:21.919Z,7.5
2023-04-07T19:59:24.433Z,7.3
2023-04-07T20:09:26.609Z,7.1
2023-04-07T20:29:30.767Z,6.5
2023-04-07T20:39:32.967Z,6.5
2023-04-07T20:49:35.449Z,5.9
2023-04-07T20:59:37.666Z,5.4
2023-04-07T21:09:39.524Z,5.3
2023-04-07T21:19:41.473Z,5.1
2023-04-07T21:29:44.038Z,4.9
2023-04-07T21:49:48.488Z,4.7
2023-04-07T21:59:50.152Z,4.5
2023-04-07T22:19:54.673Z,4.1
2023-04-07T22:29:57.158Z,3.9
2023-04-07T22:39:59.037Z,3.7
2023-04-07T22:50:01.304Z,3.6
2023-04-07T23:10:04.913Z,3.1
2023-04-07T23:30:08.777Z,3.1
